sensor_id;sensor_type;location;lat;lon;timestamp;temperature;humidity
3678;DHT22;1855;50.934;6.958;2023-04-24T00:01:23;11.80;93.00
3678;DHT22;1855;50.934;6.958;2023-04-24T00:03:50;11.80;93.10
3678;DHT22;1855;50.934;6.958;2023-04-24T00:06:17;11.80;93.00
3678;DHT22;1855;50.934;6.958;2023-04-24T00:08:44;11.80;93.00
3678;DHT22;1855;50.934;6.958;2023-04-24T00:11:12;11.80;93.20
3678;DHT22;1855;50.934;6.958;2023-04-24T00:13:39;11.80;93.90
3678;DHT22;1855;50.934;6.958;2023-04-24T00:16:06;11.80;93.50
3678;DHT22;1855;50.934;6.958;2023-04-24T00:18:32;11.80;93.40
3678;DHT22;1855;50.934;6.958;2023-04-24T00:20:59;11.80;93.50
3678;DHT22;1855;50.934;6.958;2023-04-24T00:23:26;11.80;93.60
3678;DHT22;1855;50.934;6.958;2023-04-24T00:25:53;11.70;93.70
3678;DHT22;1855;50.934;6.958;2023-04-24T00:28:21;11.70;93.80
3678;DHT22;1855;50.934;6.958;2023-04-24T00:30:47;11.60;94.40
3678;DHT22;1855;50.934;6.958;2023-04-24T00:33:14;11.70;94.00
3678;DHT22;1855;50.934;6.958;2023-04-24T00:35:41;11.70;94.00
3678;DHT22;1855;50.934;6.958;2023-04-24T00:38:08;11.60;94.10
3678;DHT22;1855;50.934;6.958;2023-04-24T00:40:34;11.60;94.00
3678;DHT22;1855;50.934;6.958;2023-04-24T00:43:01;11.60;94.10
3678;DHT22;1855;50.934;6.958;2023-04-24T00:45:29;11.70;94.20
3678;DHT22;1855;50.934;6.958;2023-04-24T00:47:57;11.70;94.00
3678;DHT22;1855;50.934;6.958;2023-04-24T00:50:24;11.70;94.10
3678;DHT22;1855;50.934;6.958;2023-04-24T00:52:51;11.70;93.90
3678;DHT22;1855;50.934;6.958;2023-04-24T00:55:18;11.70;92.00
3678;DHT22;1855;50.934;6.958;2023-04-24T00:57:46;11.70;91.80
3678;DHT22;1855;50.934;6.958;2023-04-24T01:00:14;11.70;90.90
3678;DHT22;1855;50.934;6.958;2023-04-24T01:02:44;11.70;91.10
3678;DHT22;1855;50.934;6.958;2023-04-24T01:05:12;11.70;91.20
3678;DHT22;1855;50.934;6.958;2023-04-24T01:07:39;11.70;91.10
3678;DHT22;1855;50.934;6.958;2023-04-24T01:10:10;11.60;91.00
3678;DHT22;1855;50.934;6.958;2023-04-24T01:12:37;11.60;90.80
3678;DHT22;1855;50.934;6.958;2023-04-24T01:15:04;11.60;90.90
3678;DHT22;1855;50.934;6.958;2023-04-24T01:17:31;11.60;90.60
3678;DHT22;1855;50.934;6.958;2023-04-24T01:20:00;11.60;90.50
3678;DHT22;1855;50.934;6.958;2023-04-24T01:22:32;11.60;90.20
3678;DHT22;1855;50.934;6.958;2023-04-24T01:24:59;11.50;88.50
3678;DHT22;1855;50.934;6.958;2023-04-24T01:27:26;11.50;87.20
3678;DHT22;1855;50.934;6.958;2023-04-24T01:29:53;11.50;86.30
3678;DHT22;1855;50.934;6.958;2023-04-24T01:32:20;11.40;85.90
3678;DHT22;1855;50.934;6.958;2023-04-24T01:34:47;11.40;86.20
3678;DHT22;1855;50.934;6.958;2023-04-24T01:37:14;11.40;86.70
3678;DHT22;1855;50.934;6.958;2023-04-24T01:39:43;11.40;87.60
3678;DHT22;1855;50.934;6.958;2023-04-24T01:42:10;11.40;88.50
3678;DHT22;1855;50.934;6.958;2023-04-24T01:44:38;11.30;87.60
3678;DHT22;1855;50.934;6.958;2023-04-24T01:47:05;11.20;86.00
3678;DHT22;1855;50.934;6.958;2023-04-24T01:49:32;11.20;86.00
3678;DHT22;1855;50.934;6.958;2023-04-24T01:52:00;11.10;86.60
3678;DHT22;1855;50.934;6.958;2023-04-24T01:54:27;11.00;85.90
3678;DHT22;1855;50.934;6.958;2023-04-24T01:56:55;10.90;86.60
3678;DHT22;1855;50.934;6.958;2023-04-24T01:59:23;10.80;87.00
3678;DHT22;1855;50.934;6.958;2023-04-24T02:01:51;10.70;87.80
3678;DHT22;1855;50.934;6.958;2023-04-24T02:04:18;10.60;88.20
3678;DHT22;1855;50.934;6.958;2023-04-24T02:06:45;10.50;89.10
3678;DHT22;1855;50.934;6.958;2023-04-24T02:09:11;10.40;89.60
3678;DHT22;1855;50.934;6.958;2023-04-24T02:11:38;10.30;90.10
3678;DHT22;1855;50.934;6.958;2023-04-24T02:14:06;10.20;90.40
3678;DHT22;1855;50.934;6.958;2023-04-24T02:16:33;10.10;90.80
3678;DHT22;1855;50.934;6.958;2023-04-24T02:19:01;10.00;91.20
3678;DHT22;1855;50.934;6.958;2023-04-24T02:21:28;10.00;91.50
3678;DHT22;1855;50.934;6.958;2023-04-24T02:23:56;9.90;91.70
3678;DHT22;1855;50.934;6.958;2023-04-24T02:26:23;9.80;92.10
3678;DHT22;1855;50.934;6.958;2023-04-24T02:28:50;9.70;92.50
3678;DHT22;1855;50.934;6.958;2023-04-24T02:31:18;9.70;92.80
3678;DHT22;1855;50.934;6.958;2023-04-24T02:33:45;9.60;93.00
3678;DHT22;1855;50.934;6.958;2023-04-24T02:36:12;9.60;93.20
3678;DHT22;1855;50.934;6.958;2023-04-24T02:38:39;9.60;93.40
3678;DHT22;1855;50.934;6.958;2023-04-24T02:41:06;9.60;93.10
3678;DHT22;1855;50.934;6.958;2023-04-24T02:43:33;9.50;93.30
3678;DHT22;1855;50.934;6.958;2023-04-24T02:45:59;9.50;93.30
3678;DHT22;1855;50.934;6.958;2023-04-24T02:48:28;9.40;93.60
3678;DHT22;1855;50.934;6.958;2023-04-24T02:50:55;9.40;93.40
3678;DHT22;1855;50.934;6.958;2023-04-24T02:53:23;9.50;93.40
3678;DHT22;1855;50.934;6.958;2023-04-24T02:55:49;9.50;93.50
3678;DHT22;1855;50.934;6.958;2023-04-24T02:58:16;9.60;93.40
3678;DHT22;1855;50.934;6.958;2023-04-24T03:00:45;9.60;93.30
3678;DHT22;1855;50.934;6.958;2023-04-24T03:03:12;9.70;92.80
3678;DHT22;1855;50.934;6.958;2023-04-24T03:05:40;9.80;92.50
3678;DHT22;1855;50.934;6.958;2023-04-24T03:08:07;9.80;92.60
3678;DHT22;1855;50.934;6.958;2023-04-24T03:10:33;9.70;92.40
3678;DHT22;1855;50.934;6.958;2023-04-24T03:13:00;9.80;92.60
3678;DHT22;1855;50.934;6.958;2023-04-24T03:15:27;9.80;92.30
3678;DHT22;1855;50.934;6.958;2023-04-24T03:17:53;9.80;91.90
3678;DHT22;1855;50.934;6.958;2023-04-24T03:20:20;9.70;92.10
3678;DHT22;1855;50.934;6.958;2023-04-24T03:22:49;9.70;92.20
3678;DHT22;1855;50.934;6.958;2023-04-24T03:25:15;9.70;92.00
3678;DHT22;1855;50.934;6.958;2023-04-24T03:27:42;9.70;92.20
3678;DHT22;1855;50.934;6.958;2023-04-24T03:30:09;9.70;91.90
3678;DHT22;1855;50.934;6.958;2023-04-24T03:32:36;9.70;91.70
3678;DHT22;1855;50.934;6.958;2023-04-24T03:35:05;9.70;92.00
3678;DHT22;1855;50.934;6.958;2023-04-24T03:37:32;9.60;92.20
3678;DHT22;1855;50.934;6.958;2023-04-24T03:40:00;9.60;92.00
3678;DHT22;1855;50.934;6.958;2023-04-24T03:42:27;9.60;92.10
3678;DHT22;1855;50.934;6.958;2023-04-24T03:44:54;9.50;92.00
3678;DHT22;1855;50.934;6.958;2023-04-24T03:47:20;9.40;92.20
3678;DHT22;1855;50.934;6.958;2023-04-24T03:49:47;9.40;92.40
3678;DHT22;1855;50.934;6.958;2023-04-24T03:52:14;9.30;92.50
3678;DHT22;1855;50.934;6.958;2023-04-24T03:54:40;9.30;92.70
3678;DHT22;1855;50.934;6.958;2023-04-24T03:57:09;9.30;92.60
3678;DHT22;1855;50.934;6.958;2023-04-24T03:59:35;9.30;92.80
3678;DHT22;1855;50.934;6.958;2023-04-24T04:02:02;9.40;93.10
3678;DHT22;1855;50.934;6.958;2023-04-24T04:04:29;9.40;92.70
3678;DHT22;1855;50.934;6.958;2023-04-24T04:06:55;9.50;92.70
3678;DHT22;1855;50.934;6.958;2023-04-24T04:09:25;9.50;92.40
3678;DHT22;1855;50.934;6.958;2023-04-24T04:11:52;9.50;92.10
3678;DHT22;1855;50.934;6.958;2023-04-24T04:14:20;9.50;92.20
3678;DHT22;1855;50.934;6.958;2023-04-24T04:16:47;9.50;92.10
3678;DHT22;1855;50.934;6.958;2023-04-24T04:19:13;9.50;92.10
3678;DHT22;1855;50.934;6.958;2023-04-24T04:21:40;9.50;92.10
3678;DHT22;1855;50.934;6.958;2023-04-24T04:24:07;9.50;92.30
3678;DHT22;1855;50.934;6.958;2023-04-24T04:26:35;9.50;92.30
3678;DHT22;1855;50.934;6.958;2023-04-24T04:29:03;9.50;92.20
3678;DHT22;1855;50.934;6.958;2023-04-24T04:31:31;9.50;91.90
3678;DHT22;1855;50.934;6.958;2023-04-24T04:33:58;9.50;92.10
3678;DHT22;1855;50.934;6.958;2023-04-24T04:36:24;9.50;92.20
3678;DHT22;1855;50.934;6.958;2023-04-24T04:38:51;9.50;92.30
3678;DHT22;1855;50.934;6.958;2023-04-24T04:41:20;9.50;92.20
3678;DHT22;1855;50.934;6.958;2023-04-24T04:43:46;9.60;92.50
3678;DHT22;1855;50.934;6.958;2023-04-24T04:46:13;9.50;92.50
3678;DHT22;1855;50.934;6.958;2023-04-24T04:48:41;9.60;92.30
3678;DHT22;1855;50.934;6.958;2023-04-24T04:51:08;9.60;92.20
3678;DHT22;1855;50.934;6.958;2023-04-24T04:53:35;9.60;92.60
3678;DHT22;1855;50.934;6.958;2023-04-24T04:56:02;9.60;92.50
3678;DHT22;1855;50.934;6.958;2023-04-24T04:58:28;9.60;92.20
3678;DHT22;1855;50.934;6.958;2023-04-24T05:00:56;9.60;92.40
3678;DHT22;1855;50.934;6.958;2023-04-24T05:03:22;9.70;92.70
3678;DHT22;1855;50.934;6.958;2023-04-24T05:05:50;9.60;92.40
3678;DHT22;1855;50.934;6.958;2023-04-24T05:08:17;9.70;92.20
3678;DHT22;1855;50.934;6.958;2023-04-24T05:10:44;9.70;92.30
3678;DHT22;1855;50.934;6.958;2023-04-24T05:13:11;9.70;92.50
3678;DHT22;1855;50.934;6.958;2023-04-24T05:15:37;9.70;92.40
3678;DHT22;1855;50.934;6.958;2023-04-24T05:18:04;9.70;92.60
3678;DHT22;1855;50.934;6.958;2023-04-24T05:20:31;9.70;92.60
3678;DHT22;1855;50.934;6.958;2023-04-24T05:22:59;9.70;92.90
3678;DHT22;1855;50.934;6.958;2023-04-24T05:25:26;9.70;92.60
3678;DHT22;1855;50.934;6.958;2023-04-24T05:27:52;9.70;92.50
3678;DHT22;1855;50.934;6.958;2023-04-24T05:30:20;9.70;92.90
3678;DHT22;1855;50.934;6.958;2023-04-24T05:32:46;9.70;92.80
3678;DHT22;1855;50.934;6.958;2023-04-24T05:35:13;9.70;93.00
3678;DHT22;1855;50.934;6.958;2023-04-24T05:37:40;9.70;93.60
3678;DHT22;1855;50.934;6.958;2023-04-24T05:40:09;9.80;93.20
3678;DHT22;1855;50.934;6.958;2023-04-24T05:42:36;9.80;93.50
3678;DHT22;1855;50.934;6.958;2023-04-24T05:45:04;9.70;94.10
3678;DHT22;1855;50.934;6.958;2023-04-24T05:47:31;9.70;93.90
3678;DHT22;1855;50.934;6.958;2023-04-24T05:49:57;9.70;94.00
3678;DHT22;1855;50.934;6.958;2023-04-24T05:52:24;9.70;94.20
3678;DHT22;1855;50.934;6.958;2023-04-24T05:54:51;9.70;94.40
3678;DHT22;1855;50.934;6.958;2023-04-24T05:57:20;9.70;94.70
3678;DHT22;1855;50.934;6.958;2023-04-24T05:59:46;9.70;94.30
3678;DHT22;1855;50.934;6.958;2023-04-24T06:02:14;9.70;94.20
3678;DHT22;1855;50.934;6.958;2023-04-24T06:04:41;9.70;94.20
3678;DHT22;1855;50.934;6.958;2023-04-24T06:07:07;9.70;94.30
3678;DHT22;1855;50.934;6.958;2023-04-24T06:09:34;9.70;94.70
3678;DHT22;1855;50.934;6.958;2023-04-24T06:12:02;9.80;94.10
3678;DHT22;1855;50.934;6.958;2023-04-24T06:14:30;9.70;94.40
3678;DHT22;1855;50.934;6.958;2023-04-24T06:16:57;9.70;94.30
3678;DHT22;1855;50.934;6.958;2023-04-24T06:19:24;9.60;95.50
3678;DHT22;1855;50.934;6.958;2023-04-24T06:21:50;9.60;96.70
3678;DHT22;1855;50.934;6.958;2023-04-24T06:24:17;9.50;97.10
3678;DHT22;1855;50.934;6.958;2023-04-24T06:26:44;9.50;97.40
3678;DHT22;1855;50.934;6.958;2023-04-24T06:29:11;9.40;98.00
3678;DHT22;1855;50.934;6.958;2023-04-24T06:31:39;9.20;98.90
3678;DHT22;1855;50.934;6.958;2023-04-24T06:34:06;9.00;99.00
3678;DHT22;1855;50.934;6.958;2023-04-24T06:36:32;8.90;99.90
3678;DHT22;1855;50.934;6.958;2023-04-24T06:39:00;8.90;99.90
3678;DHT22;1855;50.934;6.958;2023-04-24T06:41:27;8.90;99.90
3678;DHT22;1855;50.934;6.958;2023-04-24T06:43:54;8.80;99.90
3678;DHT22;1855;50.934;6.958;2023-04-24T06:46:22;8.60;99.90
3678;DHT22;1855;50.934;6.958;2023-04-24T06:48:52;8.50;99.90
3678;DHT22;1855;50.934;6.958;2023-04-24T06:51:21;8.30;99.90
3678;DHT22;1855;50.934;6.958;2023-04-24T06:53:48;8.10;99.90
3678;DHT22;1855;50.934;6.958;2023-04-24T06:56:15;8.10;99.90
3678;DHT22;1855;50.934;6.958;2023-04-24T06:58:42;8.00;99.90
3678;DHT22;1855;50.934;6.958;2023-04-24T07:01:09;7.90;99.90
3678;DHT22;1855;50.934;6.958;2023-04-24T07:03:36;7.90;99.90
3678;DHT22;1855;50.934;6.958;2023-04-24T07:06:05;7.90;99.90
3678;DHT22;1855;50.934;6.958;2023-04-24T07:08:32;7.80;99.90
3678;DHT22;1855;50.934;6.958;2023-04-24T07:10:59;7.90;99.90
3678;DHT22;1855;50.934;6.958;2023-04-24T07:13:26;7.90;99.90
3678;DHT22;1855;50.934;6.958;2023-04-24T07:15:53;7.90;99.90
3678;DHT22;1855;50.934;6.958;2023-04-24T07:18:21;7.90;99.90
3678;DHT22;1855;50.934;6.958;2023-04-24T07:20:48;7.90;99.90
3678;DHT22;1855;50.934;6.958;2023-04-24T07:23:16;7.90;99.90
3678;DHT22;1855;50.934;6.958;2023-04-24T07:25:43;7.90;99.90
3678;DHT22;1855;50.934;6.958;2023-04-24T07:28:10;7.90;99.90
3678;DHT22;1855;50.934;6.958;2023-04-24T07:30:37;7.90;99.90
3678;DHT22;1855;50.934;6.958;2023-04-24T07:33:04;7.90;99.90
3678;DHT22;1855;50.934;6.958;2023-04-24T07:35:33;7.90;99.90
3678;DHT22;1855;50.934;6.958;2023-04-24T07:37:59;7.90;99.90
3678;DHT22;1855;50.934;6.958;2023-04-24T07:40:28;7.80;99.90
3678;DHT22;1855;50.934;6.958;2023-04-24T07:42:54;7.80;99.90
3678;DHT22;1855;50.934;6.958;2023-04-24T07:45:21;7.70;99.90
3678;DHT22;1855;50.934;6.958;2023-04-24T07:47:51;7.60;99.90
3678;DHT22;1855;50.934;6.958;2023-04-24T07:50:18;7.50;99.90
3678;DHT22;1855;50.934;6.958;2023-04-24T07:52:45;7.40;99.90
3678;DHT22;1855;50.934;6.958;2023-04-24T07:55:11;7.30;99.90
3678;DHT22;1855;50.934;6.958;2023-04-24T07:57:40;7.30;99.90
3678;DHT22;1855;50.934;6.958;2023-04-24T08:00:07;7.20;99.90
3678;DHT22;1855;50.934;6.958;2023-04-24T08:02:34;7.10;99.90
3678;DHT22;1855;50.934;6.958;2023-04-24T08:05:01;7.10;99.90
3678;DHT22;1855;50.934;6.958;2023-04-24T08:07:28;7.00;99.90
3678;DHT22;1855;50.934;6.958;2023-04-24T08:09:55;7.00;99.90
3678;DHT22;1855;50.934;6.958;2023-04-24T08:12:22;7.00;99.90
3678;DHT22;1855;50.934;6.958;2023-04-24T08:14:50;7.00;99.90
3678;DHT22;1855;50.934;6.958;2023-04-24T08:17:17;6.90;99.90
3678;DHT22;1855;50.934;6.958;2023-04-24T08:19:44;7.00;99.90
3678;DHT22;1855;50.934;6.958;2023-04-24T08:22:13;6.80;99.90
3678;DHT22;1855;50.934;6.958;2023-04-24T08:24:40;6.80;99.90
3678;DHT22;1855;50.934;6.958;2023-04-24T08:27:08;6.80;99.90
3678;DHT22;1855;50.934;6.958;2023-04-24T08:29:35;6.70;99.90
3678;DHT22;1855;50.934;6.958;2023-04-24T08:32:03;6.60;99.90
3678;DHT22;1855;50.934;6.958;2023-04-24T08:34:30;6.60;99.90
3678;DHT22;1855;50.934;6.958;2023-04-24T08:36:56;6.60;99.90
3678;DHT22;1855;50.934;6.958;2023-04-24T08:39:23;6.50;99.90
3678;DHT22;1855;50.934;6.958;2023-04-24T08:41:50;6.50;99.90
3678;DHT22;1855;50.934;6.958;2023-04-24T08:44:19;6.50;99.90
3678;DHT22;1855;50.934;6.958;2023-04-24T08:46:47;6.40;99.90
3678;DHT22;1855;50.934;6.958;2023-04-24T08:49:16;6.40;99.90
3678;DHT22;1855;50.934;6.958;2023-04-24T08:51:42;6.50;99.90
3678;DHT22;1855;50.934;6.958;2023-04-24T08:56:38;6.50;99.90
3678;DHT22;1855;50.934;6.958;2023-04-24T08:59:06;6.50;99.90
3678;DHT22;1855;50.934;6.958;2023-04-24T09:01:34;6.50;99.90
3678;DHT22;1855;50.934;6.958;2023-04-24T09:04:07;6.50;99.90
3678;DHT22;1855;50.934;6.958;2023-04-24T09:06:36;6.60;99.90
3678;DHT22;1855;50.934;6.958;2023-04-24T09:09:03;6.60;99.90
3678;DHT22;1855;50.934;6.958;2023-04-24T09:11:31;6.60;99.90
3678;DHT22;1855;50.934;6.958;2023-04-24T09:13:58;6.70;99.90
3678;DHT22;1855;50.934;6.958;2023-04-24T09:16:26;6.70;99.90
3678;DHT22;1855;50.934;6.958;2023-04-24T09:18:53;6.70;99.90
3678;DHT22;1855;50.934;6.958;2023-04-24T09:21:20;6.80;99.90
3678;DHT22;1855;50.934;6.958;2023-04-24T09:23:57;6.80;99.90
3678;DHT22;1855;50.934;6.958;2023-04-24T09:26:24;6.90;99.90
3678;DHT22;1855;50.934;6.958;2023-04-24T09:28:53;6.90;99.90
3678;DHT22;1855;50.934;6.958;2023-04-24T09:31:20;7.00;99.90
3678;DHT22;1855;50.934;6.958;2023-04-24T09:33:54;7.00;99.90
3678;DHT22;1855;50.934;6.958;2023-04-24T09:36:27;7.10;99.90
3678;DHT22;1855;50.934;6.958;2023-04-24T09:38:58;7.10;99.90
3678;DHT22;1855;50.934;6.958;2023-04-24T09:41:26;7.20;99.90
3678;DHT22;1855;50.934;6.958;2023-04-24T09:43:53;7.20;99.90
3678;DHT22;1855;50.934;6.958;2023-04-24T09:46:21;7.20;99.90
3678;DHT22;1855;50.934;6.958;2023-04-24T09:48:48;7.30;99.90
3678;DHT22;1855;50.934;6.958;2023-04-24T09:51:14;7.30;99.90
3678;DHT22;1855;50.934;6.958;2023-04-24T09:53:45;7.40;99.90
3678;DHT22;1855;50.934;6.958;2023-04-24T09:56:14;7.50;99.90
3678;DHT22;1855;50.934;6.958;2023-04-24T09:58:40;7.60;99.90
3678;DHT22;1855;50.934;6.958;2023-04-24T10:01:07;7.70;99.90
3678;DHT22;1855;50.934;6.958;2023-04-24T10:03:34;7.80;99.90
3678;DHT22;1855;50.934;6.958;2023-04-24T10:06:01;7.90;99.90
3678;DHT22;1855;50.934;6.958;2023-04-24T10:08:33;7.90;99.90
3678;DHT22;1855;50.934;6.958;2023-04-24T10:11:00;7.90;99.90
3678;DHT22;1855;50.934;6.958;2023-04-24T10:13:29;8.00;99.90
3678;DHT22;1855;50.934;6.958;2023-04-24T10:15:59;8.10;99.90
3678;DHT22;1855;50.934;6.958;2023-04-24T10:18:27;8.10;99.90
3678;DHT22;1855;50.934;6.958;2023-04-24T10:20:54;8.10;99.90
3678;DHT22;1855;50.934;6.958;2023-04-24T10:23:21;8.30;99.90
3678;DHT22;1855;50.934;6.958;2023-04-24T10:25:49;8.50;99.90
3678;DHT22;1855;50.934;6.958;2023-04-24T10:28:18;8.60;99.90
3678;DHT22;1855;50.934;6.958;2023-04-24T10:30:47;8.60;99.90
3678;DHT22;1855;50.934;6.958;2023-04-24T10:33:16;8.50;99.90
3678;DHT22;1855;50.934;6.958;2023-04-24T10:35:46;8.50;99.90
3678;DHT22;1855;50.934;6.958;2023-04-24T10:38:16;8.40;99.90
3678;DHT22;1855;50.934;6.958;2023-04-24T10:40:44;8.40;99.90
3678;DHT22;1855;50.934;6.958;2023-04-24T10:43:16;8.50;99.90
3678;DHT22;1855;50.934;6.958;2023-04-24T10:46:01;8.50;99.90
3678;DHT22;1855;50.934;6.958;2023-04-24T10:48:29;8.50;99.90
3678;DHT22;1855;50.934;6.958;2023-04-24T10:50:55;8.50;99.90
3678;DHT22;1855;50.934;6.958;2023-04-24T10:53:24;8.50;99.90
3678;DHT22;1855;50.934;6.958;2023-04-24T10:55:57;8.70;99.90
3678;DHT22;1855;50.934;6.958;2023-04-24T10:58:36;8.80;99.90
3678;DHT22;1855;50.934;6.958;2023-04-24T11:01:05;9.00;99.90
3678;DHT22;1855;50.934;6.958;2023-04-24T11:03:33;9.20;99.90
3678;DHT22;1855;50.934;6.958;2023-04-24T11:06:02;9.50;99.90
3678;DHT22;1855;50.934;6.958;2023-04-24T11:08:31;9.70;99.90
3678;DHT22;1855;50.934;6.958;2023-04-24T11:11:00;9.90;99.90
3678;DHT22;1855;50.934;6.958;2023-04-24T11:16:28;10.00;99.90
3678;DHT22;1855;50.934;6.958;2023-04-24T11:19:01;9.90;99.90
3678;DHT22;1855;50.934;6.958;2023-04-24T11:21:31;9.90;99.90
3678;DHT22;1855;50.934;6.958;2023-04-24T11:23:58;10.00;99.90
3678;DHT22;1855;50.934;6.958;2023-04-24T11:26:45;10.00;99.90
3678;DHT22;1855;50.934;6.958;2023-04-24T11:29:12;10.10;99.90
3678;DHT22;1855;50.934;6.958;2023-04-24T11:31:40;10.30;99.90
3678;DHT22;1855;50.934;6.958;2023-04-24T11:34:09;10.50;99.90
3678;DHT22;1855;50.934;6.958;2023-04-24T11:36:36;10.60;99.90
3678;DHT22;1855;50.934;6.958;2023-04-24T11:39:03;10.60;99.90
3678;DHT22;1855;50.934;6.958;2023-04-24T11:41:30;10.60;99.90
3678;DHT22;1855;50.934;6.958;2023-04-24T11:43:57;10.50;99.90
3678;DHT22;1855;50.934;6.958;2023-04-24T11:46:27;10.50;99.90
3678;DHT22;1855;50.934;6.958;2023-04-24T11:48:56;10.70;99.90
3678;DHT22;1855;50.934;6.958;2023-04-24T11:51:23;11.00;99.90
3678;DHT22;1855;50.934;6.958;2023-04-24T11:53:50;11.30;99.90
3678;DHT22;1855;50.934;6.958;2023-04-24T11:56:17;11.70;98.60
3678;DHT22;1855;50.934;6.958;2023-04-24T11:58:45;12.00;96.20
3678;DHT22;1855;50.934;6.958;2023-04-24T12:01:12;12.00;94.40
3678;DHT22;1855;50.934;6.958;2023-04-24T12:03:39;12.00;94.70
3678;DHT22;1855;50.934;6.958;2023-04-24T12:06:11;11.90;94.60
3678;DHT22;1855;50.934;6.958;2023-04-24T12:08:37;12.00;95.70
3678;DHT22;1855;50.934;6.958;2023-04-24T12:11:06;12.30;95.00
3678;DHT22;1855;50.934;6.958;2023-04-24T12:13:34;12.50;92.60
3678;DHT22;1855;50.934;6.958;2023-04-24T12:16:02;12.50;91.90
3678;DHT22;1855;50.934;6.958;2023-04-24T12:18:29;12.40;91.60
3678;DHT22;1855;50.934;6.958;2023-04-24T12:21:16;12.20;91.40
3678;DHT22;1855;50.934;6.958;2023-04-24T12:23:43;12.20;94.10
3678;DHT22;1855;50.934;6.958;2023-04-24T12:26:10;12.10;91.70
3678;DHT22;1855;50.934;6.958;2023-04-24T12:28:38;12.00;92.80
3678;DHT22;1855;50.934;6.958;2023-04-24T12:31:06;11.90;93.00
3678;DHT22;1855;50.934;6.958;2023-04-24T12:33:34;11.80;93.00
3678;DHT22;1855;50.934;6.958;2023-04-24T12:36:01;11.60;93.80
3678;DHT22;1855;50.934;6.958;2023-04-24T12:38:29;11.60;94.30
3678;DHT22;1855;50.934;6.958;2023-04-24T12:41:04;11.80;92.50
3678;DHT22;1855;50.934;6.958;2023-04-24T12:43:31;12.00;92.60
3678;DHT22;1855;50.934;6.958;2023-04-24T12:45:57;12.30;92.10
3678;DHT22;1855;50.934;6.958;2023-04-24T12:48:25;12.60;90.10
3678;DHT22;1855;50.934;6.958;2023-04-24T12:50:52;12.90;90.10
3678;DHT22;1855;50.934;6.958;2023-04-24T12:53:18;13.00;88.30
3678;DHT22;1855;50.934;6.958;2023-04-24T12:55:46;12.90;87.50
3678;DHT22;1855;50.934;6.958;2023-04-24T12:58:18;12.70;89.90
3678;DHT22;1855;50.934;6.958;2023-04-24T13:00:45;12.50;88.70
3678;DHT22;1855;50.934;6.958;2023-04-24T13:03:12;12.40;90.90
3678;DHT22;1855;50.934;6.958;2023-04-24T13:05:39;12.30;90.90
3678;DHT22;1855;50.934;6.958;2023-04-24T13:08:05;12.30;90.80
3678;DHT22;1855;50.934;6.958;2023-04-24T13:10:32;12.50;90.50
3678;DHT22;1855;50.934;6.958;2023-04-24T13:13:00;12.70;90.70
3678;DHT22;1855;50.934;6.958;2023-04-24T13:15:27;12.70;90.30
3678;DHT22;1855;50.934;6.958;2023-04-24T13:17:54;12.60;90.60
3678;DHT22;1855;50.934;6.958;2023-04-24T13:20:21;12.70;90.40
3678;DHT22;1855;50.934;6.958;2023-04-24T13:22:47;12.90;84.70
3678;DHT22;1855;50.934;6.958;2023-04-24T13:25:14;12.80;82.20
3678;DHT22;1855;50.934;6.958;2023-04-24T13:27:42;12.60;81.90
3678;DHT22;1855;50.934;6.958;2023-04-24T13:30:11;12.40;85.70
3678;DHT22;1855;50.934;6.958;2023-04-24T13:32:38;12.30;82.50
3678;DHT22;1855;50.934;6.958;2023-04-24T13:35:05;12.30;82.70
3678;DHT22;1855;50.934;6.958;2023-04-24T13:37:32;12.30;83.40
3678;DHT22;1855;50.934;6.958;2023-04-24T13:39:59;12.60;79.10
3678;DHT22;1855;50.934;6.958;2023-04-24T13:42:25;13.00;78.90
3678;DHT22;1855;50.934;6.958;2023-04-24T13:44:52;13.70;73.00
3678;DHT22;1855;50.934;6.958;2023-04-24T13:47:20;14.00;70.00
3678;DHT22;1855;50.934;6.958;2023-04-24T13:49:49;14.40;66.90
3678;DHT22;1855;50.934;6.958;2023-04-24T13:52:16;14.20;68.20
3678;DHT22;1855;50.934;6.958;2023-04-24T13:54:42;13.80;71.30
3678;DHT22;1855;50.934;6.958;2023-04-24T13:57:09;13.50;73.20
3678;DHT22;1855;50.934;6.958;2023-04-24T13:59:36;13.30;76.20
3678;DHT22;1855;50.934;6.958;2023-04-24T14:02:03;13.40;77.80
3678;DHT22;1855;50.934;6.958;2023-04-24T14:04:31;14.10;76.10
3678;DHT22;1855;50.934;6.958;2023-04-24T14:06:58;15.00;66.40
3678;DHT22;1855;50.934;6.958;2023-04-24T14:09:25;15.00;64.20
3678;DHT22;1855;50.934;6.958;2023-04-24T14:11:52;14.90;65.00
3678;DHT22;1855;50.934;6.958;2023-04-24T14:14:18;14.80;67.50
3678;DHT22;1855;50.934;6.958;2023-04-24T14:16:45;14.70;66.50
3678;DHT22;1855;50.934;6.958;2023-04-24T14:19:12;14.90;64.90
3678;DHT22;1855;50.934;6.958;2023-04-24T14:21:40;15.00;65.40
3678;DHT22;1855;50.934;6.958;2023-04-24T14:24:08;15.50;60.50
3678;DHT22;1855;50.934;6.958;2023-04-24T14:26:34;16.30;54.50
3678;DHT22;1855;50.934;6.958;2023-04-24T14:29:01;16.10;55.30
3678;DHT22;1855;50.934;6.958;2023-04-24T14:31:28;15.60;57.10
3678;DHT22;1855;50.934;6.958;2023-04-24T14:33:55;15.20;58.60
3678;DHT22;1855;50.934;6.958;2023-04-24T14:36:23;15.20;59.10
3678;DHT22;1855;50.934;6.958;2023-04-24T14:38:51;16.40;57.70
3678;DHT22;1855;50.934;6.958;2023-04-24T14:41:17;18.10;50.00
3678;DHT22;1855;50.934;6.958;2023-04-24T14:43:44;19.20;43.30
3678;DHT22;1855;50.934;6.958;2023-04-24T14:46:11;19.10;43.90
3678;DHT22;1855;50.934;6.958;2023-04-24T14:48:37;19.90;41.80
3678;DHT22;1855;50.934;6.958;2023-04-24T14:51:04;19.40;40.50
3678;DHT22;1855;50.934;6.958;2023-04-24T14:53:31;18.10;43.40
3678;DHT22;1855;50.934;6.958;2023-04-24T14:55:59;17.50;47.40
3678;DHT22;1855;50.934;6.958;2023-04-24T14:58:26;17.30;48.00
3678;DHT22;1855;50.934;6.958;2023-04-24T15:00:52;17.00;47.90
3678;DHT22;1855;50.934;6.958;2023-04-24T15:03:20;17.70;46.80
3678;DHT22;1855;50.934;6.958;2023-04-24T15:05:46;19.30;41.90
3678;DHT22;1855;50.934;6.958;2023-04-24T15:08:13;21.00;38.50
3678;DHT22;1855;50.934;6.958;2023-04-24T15:10:40;21.70;36.90
3678;DHT22;1855;50.934;6.958;2023-04-24T15:13:08;21.00;37.10
3678;DHT22;1855;50.934;6.958;2023-04-24T15:15:35;19.90;38.50
3678;DHT22;1855;50.934;6.958;2023-04-24T15:18:04;18.70;42.30
3678;DHT22;1855;50.934;6.958;2023-04-24T15:20:31;17.50;45.40
3678;DHT22;1855;50.934;6.958;2023-04-24T15:22:58;16.60;49.60
3678;DHT22;1855;50.934;6.958;2023-04-24T15:25:25;16.10;50.80
3678;DHT22;1855;50.934;6.958;2023-04-24T15:27:52;16.90;50.80
3678;DHT22;1855;50.934;6.958;2023-04-24T15:30:20;17.90;47.20
3678;DHT22;1855;50.934;6.958;2023-04-24T15:32:47;18.20;47.00
3678;DHT22;1855;50.934;6.958;2023-04-24T15:35:14;18.00;46.00
3678;DHT22;1855;50.934;6.958;2023-04-24T15:37:41;17.30;48.40
3678;DHT22;1855;50.934;6.958;2023-04-24T15:40:09;16.90;49.40
3678;DHT22;1855;50.934;6.958;2023-04-24T15:42:38;16.60;50.30
3678;DHT22;1855;50.934;6.958;2023-04-24T15:45:06;16.70;49.20
3678;DHT22;1855;50.934;6.958;2023-04-24T15:47:34;18.20;45.60
3678;DHT22;1855;50.934;6.958;2023-04-24T15:50:02;19.40;41.70
3678;DHT22;1855;50.934;6.958;2023-04-24T15:52:29;20.30;40.10
3678;DHT22;1855;50.934;6.958;2023-04-24T15:54:56;20.00;39.70
3678;DHT22;1855;50.934;6.958;2023-04-24T15:57:22;18.90;41.20
3678;DHT22;1855;50.934;6.958;2023-04-24T15:59:49;17.90;42.50
3678;DHT22;1855;50.934;6.958;2023-04-24T16:02:16;17.20;45.40
3678;DHT22;1855;50.934;6.958;2023-04-24T16:04:45;16.40;48.60
3678;DHT22;1855;50.934;6.958;2023-04-24T16:07:12;15.80;51.60
3678;DHT22;1855;50.934;6.958;2023-04-24T16:09:39;15.30;52.60
3678;DHT22;1855;50.934;6.958;2023-04-24T16:12:05;14.90;53.50
3678;DHT22;1855;50.934;6.958;2023-04-24T16:14:33;14.50;53.90
3678;DHT22;1855;50.934;6.958;2023-04-24T16:17:00;14.30;55.60